createdAt,value
2018-10-04T00:00:57.579Z,12.23
2018-10-04T00:03:27.498Z,12.13
2018-10-04T00:05:57.169Z,12.07
2018-10-04T00:08:28.748Z,12.10
2018-10-04T00:11:00.824Z,12.09
2018-10-04T00:13:30.610Z,12.26
2018-10-04T00:16:03.152Z,12.42
2018-10-04T00:18:35.394Z,12.42
2018-10-04T00:21:05.588Z,12.32
2018-10-04T00:23:38.144Z,12.15
2018-10-04T00:26:09.531Z,11.82
2018-10-04T00:28:41.561Z,12.15
2018-10-04T00:31:12.464Z,12.12
2018-10-04T00:33:48.244Z,12.06
2018-10-04T00:36:18.115Z,11.96
2018-10-04T00:38:51.174Z,11.94
2018-10-04T00:41:21.721Z,11.70
2018-10-04T00:43:52.102Z,12.07
2018-10-04T00:46:22.040Z,12.29
2018-10-04T00:48:51.773Z,12.39
2018-10-04T00:51:22.812Z,12.30
2018-10-04T00:53:53.695Z,12.35
2018-10-04T00:56:23.654Z,12.34
2018-10-04T00:58:53.320Z,12.36
2018-10-04T01:01:23.579Z,12.40
2018-10-04T01:03:53.195Z,12.48
2018-10-04T01:06:24.597Z,12.52
2018-10-04T01:08:54.750Z,12.41
2018-10-04T01:11:26.605Z,12.37
2018-10-04T01:13:56.652Z,12.40
2018-10-04T01:16:27.585Z,12.44
2018-10-04T01:19:01.641Z,12.36
2018-10-04T01:21:32.647Z,12.17
2018-10-04T01:24:02.365Z,11.95
2018-10-04T01:34:29.480Z,11.96
2018-10-04T01:37:00.370Z,12.06
2018-10-04T01:39:29.748Z,12.10
2018-10-04T01:42:00.218Z,12.23
2018-10-04T01:44:29.871Z,12.20
2018-10-04T01:46:59.589Z,12.15
2018-10-04T01:49:29.031Z,12.32
2018-10-04T01:51:58.759Z,12.38
2018-10-04T01:54:29.584Z,12.21
2018-10-04T01:57:01.347Z,12.40
2018-10-04T01:59:31.739Z,12.44
2018-10-04T02:02:01.560Z,12.31
2018-10-04T02:04:54.778Z,12.37
2018-10-04T02:07:25.791Z,12.44
2018-10-04T02:09:55.197Z,12.40
2018-10-04T02:12:24.643Z,12.39
2018-10-04T02:14:56.101Z,12.29
2018-10-04T02:17:25.745Z,12.21
2018-10-04T02:19:55.643Z,12.23
2018-10-04T02:22:25.762Z,12.37
2018-10-04T02:24:55.762Z,12.48
2018-10-04T02:27:25.799Z,11.66
2018-10-04T02:30:21.598Z,12.47
2018-10-04T02:32:51.460Z,12.26
2018-10-04T02:35:21.761Z,12.04
2018-10-04T02:37:51.896Z,12.06
2018-10-04T02:40:22.102Z,11.99
2018-10-04T02:42:51.827Z,12.03
2018-10-04T02:45:21.813Z,11.63
2018-10-04T02:47:51.694Z,12.25
2018-10-04T02:50:21.514Z,12.31
2018-10-04T02:52:52.024Z,12.51
2018-10-04T02:55:28.243Z,12.70
2018-10-04T02:57:58.137Z,12.45
2018-10-04T03:00:28.567Z,12.28
2018-10-04T03:02:58.343Z,12.36
2018-10-04T03:05:29.365Z,12.50
2018-10-04T03:07:59.656Z,12.35
2018-10-04T03:10:29.293Z,12.29
2018-10-04T03:12:59.033Z,12.25
2018-10-04T03:15:29.035Z,12.19
2018-10-04T03:17:59.068Z,12.22
2018-10-04T03:20:28.756Z,12.19
2018-10-04T03:22:58.542Z,12.17
2018-10-04T03:25:29.153Z,12.13
2018-10-04T03:27:58.907Z,12.10
2018-10-04T03:33:08.620Z,12.32
2018-10-04T03:35:38.920Z,12.55
2018-10-04T03:38:11.414Z,12.69
2018-10-04T03:40:40.840Z,12.66
2018-10-04T03:43:10.414Z,12.57
2018-10-04T03:45:40.333Z,12.45
2018-10-04T03:48:09.830Z,12.30
2018-10-04T03:50:39.417Z,12.39
2018-10-04T03:53:10.056Z,12.56
2018-10-04T03:55:42.154Z,12.55
2018-10-04T03:58:11.790Z,12.61
2018-10-04T04:00:43.301Z,12.56
2018-10-04T04:03:13.543Z,12.72
2018-10-04T04:05:43.556Z,12.75
2018-10-04T04:08:13.677Z,12.80
2018-10-04T04:10:45.266Z,12.79
2018-10-04T04:13:15.021Z,12.89
2018-10-04T04:15:44.538Z,13.07
2018-10-04T04:18:14.427Z,13.17
2018-10-04T04:20:45.056Z,13.10
2018-10-04T04:23:16.444Z,13.28
2018-10-04T04:25:47.780Z,13.27
2018-10-04T04:28:21.063Z,13.42
2018-10-04T04:30:50.847Z,13.40
2018-10-04T04:33:20.368Z,13.19
2018-10-04T04:35:50.418Z,13.48
2018-10-04T04:38:20.174Z,13.51
2018-10-04T04:40:50.381Z,13.61
2018-10-04T04:43:21.739Z,13.80
2018-10-04T04:45:53.190Z,13.77
2018-10-04T04:48:22.520Z,13.81
2018-10-04T04:50:52.768Z,13.75
2018-10-04T04:53:32.672Z,13.65
2018-10-04T04:56:02.422Z,13.82
2018-10-04T04:58:34.271Z,13.89
2018-10-04T05:01:04.122Z,13.95
2018-10-04T05:03:40.639Z,14.06
2018-10-04T05:06:10.314Z,14.00
2018-10-04T05:08:39.658Z,13.89
2018-10-04T05:11:11.977Z,13.67
2018-10-04T05:13:43.429Z,13.71
2018-10-04T05:16:13.934Z,13.79
2018-10-04T05:18:43.481Z,13.72
2018-10-04T05:21:13.090Z,13.83
2018-10-04T05:23:44.246Z,13.67
2018-10-04T05:26:14.761Z,13.61
2018-10-04T05:28:48.401Z,13.63
2018-10-04T05:31:19.936Z,13.14
2018-10-04T05:33:49.835Z,13.32
2018-10-04T05:36:20.264Z,13.39
2018-10-04T05:38:50.245Z,13.34
2018-10-04T05:41:26.457Z,13.33
2018-10-04T05:44:00.797Z,13.18
2018-10-04T05:46:32.166Z,13.21
2018-10-04T05:49:01.581Z,13.15
2018-10-04T05:51:34.721Z,13.26
2018-10-04T05:54:07.839Z,13.37
2018-10-04T05:56:37.195Z,13.31
2018-10-04T05:59:07.433Z,13.37
2018-10-04T06:01:38.526Z,13.42
2018-10-04T06:04:10.723Z,13.22
2018-10-04T06:06:43.288Z,13.09
2018-10-04T06:09:13.896Z,13.11
2018-10-04T06:11:45.381Z,13.22
2018-10-04T06:14:18.192Z,13.26
2018-10-04T06:16:48.246Z,13.18
2018-10-04T06:19:18.647Z,13.18
2018-10-04T06:21:53.508Z,13.22
2018-10-04T06:24:22.945Z,13.29
2018-10-04T06:26:55.736Z,13.25
2018-10-04T06:29:28.098Z,13.11
2018-10-04T06:32:02.199Z,13.03
2018-10-04T06:34:31.633Z,13.17
2018-10-04T06:37:02.394Z,13.28
2018-10-04T06:39:33.070Z,13.41
2018-10-04T06:42:05.297Z,13.46
2018-10-04T06:44:40.558Z,13.44
2018-10-04T06:47:11.278Z,13.50
2018-10-04T06:49:41.611Z,13.59
2018-10-04T06:52:14.169Z,13.77
2018-10-04T06:54:45.266Z,13.74
2018-10-04T06:57:14.681Z,13.74
2018-10-04T06:59:46.387Z,13.84
2018-10-04T07:02:19.115Z,13.88
2018-10-04T07:04:51.980Z,13.85
2018-10-04T07:07:22.153Z,14.04
2018-10-04T07:09:59.568Z,14.00
2018-10-04T07:12:30.746Z,14.06
2018-10-04T07:15:08.438Z,14.07
2018-10-04T07:17:42.666Z,13.85
2018-10-04T07:20:15.557Z,13.96
2018-10-04T07:22:48.193Z,13.99
2018-10-04T07:25:20.759Z,14.06
2018-10-04T07:27:51.668Z,14.24
2018-10-04T07:30:25.141Z,14.33
2018-10-04T07:32:55.210Z,14.47
2018-10-04T07:35:31.481Z,14.35
2018-10-04T07:38:05.278Z,14.11
2018-10-04T07:40:40.423Z,14.15
2018-10-04T07:43:10.709Z,14.35
2018-10-04T07:45:43.120Z,14.45
2018-10-04T07:48:15.883Z,14.50
2018-10-04T07:50:47.847Z,14.55
2018-10-04T07:53:24.342Z,14.58
2018-10-04T07:55:57.725Z,14.57
2018-10-04T07:58:27.703Z,14.58
2018-10-04T08:01:05.675Z,14.63
2018-10-04T08:03:39.905Z,14.35
2018-10-04T08:06:09.490Z,14.58
2018-10-04T08:08:43.307Z,14.76
2018-10-04T08:11:14.553Z,14.82
2018-10-04T08:13:45.334Z,14.94
2018-10-04T08:16:19.275Z,15.08
2018-10-04T08:18:52.085Z,15.09
2018-10-04T08:21:22.807Z,15.11
2018-10-04T08:24:01.549Z,15.19
2018-10-04T08:26:39.261Z,14.97
2018-10-04T08:29:13.276Z,14.92
2018-10-04T08:31:52.351Z,14.98
2018-10-04T08:34:23.974Z,15.12
2018-10-04T08:36:57.100Z,15.09
2018-10-04T08:39:29.100Z,15.26
2018-10-04T08:41:59.635Z,15.42
2018-10-04T08:44:29.198Z,15.48
2018-10-04T08:47:02.653Z,15.05
2018-10-04T08:49:36.361Z,15.34
2018-10-04T08:52:14.325Z,15.38
2018-10-04T08:54:44.252Z,15.32
2018-10-04T08:57:16.200Z,15.32
2018-10-04T08:59:54.006Z,15.35
2018-10-04T09:02:28.451Z,15.20
2018-10-04T09:04:58.263Z,15.31
2018-10-04T09:07:32.844Z,15.31
2018-10-04T09:10:04.074Z,15.39
2018-10-04T09:12:39.882Z,15.57
2018-10-04T09:18:01.284Z,15.91
2018-10-04T09:20:34.136Z,15.94
2018-10-04T09:23:04.203Z,15.73
2018-10-04T09:25:38.690Z,15.86
2018-10-04T09:28:14.373Z,16.09
2018-10-04T09:30:52.360Z,16.35
2018-10-04T09:33:22.536Z,16.00
2018-10-04T09:35:55.608Z,15.81
2018-10-04T09:38:26.948Z,15.72
2018-10-04T09:40:58.773Z,15.94
2018-10-04T09:43:34.676Z,16.21
2018-10-04T09:46:08.497Z,16.35
2018-10-04T09:48:39.956Z,16.53
2018-10-04T09:51:18.431Z,16.40
2018-10-04T09:56:27.405Z,16.77
2018-10-04T09:59:02.520Z,16.51
2018-10-04T10:01:37.734Z,16.89
2018-10-04T10:04:10.961Z,16.89
2018-10-04T10:06:40.469Z,17.09
2018-10-04T10:09:11.960Z,17.09
2018-10-04T10:11:44.811Z,17.14
2018-10-04T10:14:18.672Z,17.07
2018-10-04T10:16:50.601Z,17.23
2018-10-04T10:19:21.343Z,17.30
2018-10-04T10:21:51.803Z,17.08
2018-10-04T10:24:22.104Z,16.81
2018-10-04T10:26:52.332Z,17.08
2018-10-04T10:29:30.049Z,17.38
2018-10-04T10:32:01.199Z,17.63
2018-10-04T10:34:32.684Z,17.80
2018-10-04T10:37:03.593Z,17.73
2018-10-04T10:39:35.209Z,17.72
2018-10-04T10:42:04.626Z,18.11
2018-10-04T10:44:35.817Z,17.73
2018-10-04T10:47:05.828Z,18.46
2018-10-04T10:49:36.380Z,18.52
2018-10-04T10:52:06.933Z,18.21
2018-10-04T10:54:40.205Z,18.06
2018-10-04T10:57:12.110Z,18.28
2018-10-04T10:59:41.553Z,18.25
2018-10-04T11:02:11.627Z,18.38
2018-10-04T11:04:43.358Z,18.32
2018-10-04T11:07:13.997Z,18.07
2018-10-04T11:09:47.557Z,17.77
2018-10-04T11:12:18.768Z,17.74
2018-10-04T11:14:48.259Z,18.09
2018-10-04T11:17:22.382Z,18.14
2018-10-04T11:19:52.359Z,18.43
2018-10-04T11:22:22.841Z,18.11
2018-10-04T11:24:54.283Z,18.24
2018-10-04T11:27:25.255Z,18.55
2018-10-04T11:29:56.030Z,18.86
2018-10-04T11:32:26.675Z,19.02
2018-10-04T11:34:56.611Z,18.18
2018-10-04T11:37:30.696Z,18.53
2018-10-04T11:40:09.463Z,18.45
2018-10-04T11:42:41.430Z,18.75
2018-10-04T11:45:23.269Z,18.76
2018-10-04T11:47:55.807Z,18.57
2018-10-04T11:50:30.369Z,18.46
2018-10-04T11:53:06.899Z,18.36
2018-10-04T11:55:57.885Z,18.53
2018-10-04T11:58:29.709Z,18.72
2018-10-04T12:01:12.548Z,19.13
2018-10-04T12:06:42.801Z,19.30
2018-10-04T12:09:14.690Z,19.02
2018-10-04T12:11:46.334Z,19.28
2018-10-04T12:14:20.162Z,19.43
2018-10-04T12:16:50.230Z,19.61
2018-10-04T12:19:20.282Z,19.67
2018-10-04T12:22:03.552Z,20.03
2018-10-04T12:27:31.557Z,19.25
2018-10-04T12:30:22.619Z,19.49
2018-10-04T12:32:53.140Z,19.90
2018-10-04T12:35:42.690Z,20.09
2018-10-04T12:38:20.281Z,20.10
2018-10-04T12:40:49.872Z,19.89
2018-10-04T12:43:37.941Z,19.54
2018-10-04T12:46:08.480Z,20.11
2018-10-04T12:48:53.908Z,20.10
2018-10-04T12:51:25.784Z,20.46
2018-10-04T12:54:00.147Z,20.72
2018-10-04T12:56:30.852Z,20.54
2018-10-04T12:59:02.908Z,20.41
2018-10-04T13:01:33.369Z,20.50
2018-10-04T13:04:03.769Z,20.26
2018-10-04T13:06:35.334Z,20.21
2018-10-04T13:09:07.307Z,20.41
2018-10-04T13:11:39.829Z,20.49
2018-10-04T13:14:09.732Z,20.67
2018-10-04T13:16:39.788Z,20.71
2018-10-04T13:19:12.228Z,20.41
2018-10-04T13:21:43.351Z,20.51
2018-10-04T13:24:13.801Z,20.65
2018-10-04T13:26:45.587Z,20.54
2018-10-04T13:29:16.233Z,20.39
2018-10-04T13:31:47.844Z,20.26
2018-10-04T13:34:17.255Z,20.43
2018-10-04T13:36:50.653Z,20.78
2018-10-04T13:39:23.548Z,21.25
2018-10-04T13:42:01.525Z,20.94
2018-10-04T13:44:35.891Z,20.19
2018-10-04T13:47:06.835Z,19.77
2018-10-04T13:49:36.523Z,20.14
2018-10-04T13:52:10.502Z,20.20
2018-10-04T13:54:40.990Z,20.02
2018-10-04T13:57:14.542Z,19.65
2018-10-04T13:59:46.026Z,19.80
2018-10-04T14:02:17.271Z,19.88
2018-10-04T14:04:46.998Z,20.18
2018-10-04T14:07:17.409Z,20.04
2018-10-04T14:09:49.284Z,19.89
2018-10-04T14:12:24.332Z,19.80
2018-10-04T14:14:53.976Z,19.46
2018-10-04T14:17:25.291Z,19.65
2018-10-04T14:19:54.825Z,19.41
2018-10-04T14:22:25.361Z,19.75
2018-10-04T14:24:55.443Z,19.77
2018-10-04T14:27:31.944Z,19.90
2018-10-04T14:30:04.744Z,19.98
2018-10-04T14:32:35.989Z,20.18
2018-10-04T14:35:06.065Z,20.19
2018-10-04T14:40:24.822Z,19.85
2018-10-04T14:42:54.614Z,20.01
2018-10-04T14:45:29.789Z,19.61
2018-10-04T14:48:00.868Z,19.79
2018-10-04T14:50:33.449Z,19.74
2018-10-04T14:53:12.495Z,19.72
2018-10-04T14:55:43.385Z,19.97
2018-10-04T14:58:13.659Z,20.09
2018-10-04T15:00:46.934Z,19.75
2018-10-04T15:03:16.488Z,19.75
2018-10-04T15:05:48.993Z,19.31
2018-10-04T15:08:23.169Z,19.26
2018-10-04T15:10:55.628Z,19.48
2018-10-04T15:13:27.225Z,19.73
2018-10-04T15:15:57.392Z,19.85
2018-10-04T15:18:28.248Z,19.87
2018-10-04T15:21:04.620Z,19.88
2018-10-04T15:23:34.368Z,19.86
2018-10-04T15:26:03.903Z,19.98
2018-10-04T15:28:33.437Z,20.07
2018-10-04T15:31:04.434Z,20.10
2018-10-04T15:33:36.743Z,20.13
2018-10-04T15:36:06.475Z,20.05
2018-10-04T15:38:36.169Z,19.78
2018-10-04T15:41:07.400Z,19.94
2018-10-04T15:43:37.484Z,19.92
2018-10-04T15:46:09.275Z,20.00
2018-10-04T15:48:40.199Z,20.03
2018-10-04T15:51:14.944Z,20.03
2018-10-04T15:53:45.555Z,19.86
2018-10-04T15:56:15.829Z,19.59
2018-10-04T15:58:46.239Z,19.61
2018-10-04T16:01:20.091Z,19.73
2018-10-04T16:03:52.635Z,19.64
2018-10-04T16:06:26.176Z,19.59
2018-10-04T16:08:56.522Z,19.52
2018-10-04T16:11:30.633Z,19.62
2018-10-04T16:14:06.193Z,19.66
2018-10-04T16:16:37.667Z,19.80
2018-10-04T16:19:10.942Z,19.55
2018-10-04T16:21:42.226Z,19.49
2018-10-04T16:24:13.644Z,19.53
2018-10-04T16:26:54.843Z,19.62
2018-10-04T16:29:26.413Z,19.57
2018-10-04T16:32:02.249Z,19.47
2018-10-04T16:34:33.159Z,19.47
2018-10-04T16:37:13.118Z,19.46
2018-10-04T16:39:44.295Z,19.27
2018-10-04T16:42:25.461Z,19.15
2018-10-04T16:44:55.297Z,19.21
2018-10-04T16:47:28.060Z,19.29
2018-10-04T16:49:59.384Z,19.43
2018-10-04T16:52:29.807Z,19.33
2018-10-04T16:55:03.271Z,19.11
2018-10-04T16:57:33.875Z,19.00
2018-10-04T17:00:14.173Z,18.81
2018-10-04T17:02:46.269Z,18.70
2018-10-04T17:05:20.972Z,18.72
2018-10-04T17:07:55.469Z,18.89
2018-10-04T17:10:32.694Z,18.92
2018-10-04T17:13:10.690Z,18.80
2018-10-04T17:15:45.898Z,18.82
2018-10-04T17:18:16.090Z,18.90
2018-10-04T17:20:48.072Z,18.97
2018-10-04T17:23:24.368Z,19.00
2018-10-04T17:26:12.854Z,19.02
2018-10-04T17:28:43.249Z,19.01
2018-10-04T17:31:13.973Z,19.00
2018-10-04T17:33:46.444Z,18.98
2018-10-04T17:36:16.701Z,18.92
2018-10-04T17:38:47.521Z,18.84
2018-10-04T17:41:18.490Z,18.81
2018-10-04T17:43:48.611Z,18.77
2018-10-04T17:46:24.316Z,18.74
2018-10-04T17:48:55.981Z,18.65
2018-10-04T17:51:25.891Z,18.54
2018-10-04T17:53:56.574Z,18.51
2018-10-04T17:56:29.778Z,18.53
2018-10-04T17:59:02.213Z,18.35
2018-10-04T18:01:37.519Z,18.06
2018-10-04T18:04:11.052Z,17.98
2018-10-04T18:06:48.192Z,17.96
2018-10-04T18:09:17.657Z,17.94
2018-10-04T18:11:55.630Z,17.94
2018-10-04T18:14:31.644Z,17.91
2018-10-04T18:17:12.900Z,17.80
2018-10-04T18:19:45.555Z,17.68
2018-10-04T18:22:19.220Z,17.58
2018-10-04T18:24:50.950Z,17.52
2018-10-04T18:27:34.251Z,17.46
2018-10-04T18:30:17.621Z,17.46
2018-10-04T18:32:47.589Z,17.42
2018-10-04T18:35:18.506Z,17.25
2018-10-04T18:37:49.817Z,17.13
2018-10-04T18:40:28.554Z,17.10
2018-10-04T18:42:58.582Z,17.00
2018-10-04T18:48:47.237Z,16.77
2018-10-04T18:51:20.278Z,16.70
2018-10-04T18:53:49.843Z,16.67
2018-10-04T18:56:25.794Z,16.59
2018-10-04T18:58:57.092Z,16.61
2018-10-04T19:01:29.565Z,16.66
2018-10-04T19:04:09.648Z,16.64
2018-10-04T19:06:43.685Z,16.59
2018-10-04T19:09:16.337Z,16.46
2018-10-04T19:11:49.922Z,16.42
2018-10-04T19:14:28.354Z,16.39
2018-10-04T19:17:01.165Z,15.77
2018-10-04T19:19:33.308Z,16.33
2018-10-04T19:22:03.177Z,16.35
2018-10-04T19:24:36.062Z,16.33
2018-10-04T19:27:10.375Z,16.33
2018-10-04T19:29:41.005Z,16.27
2018-10-04T19:32:10.561Z,16.22
2018-10-04T19:34:42.325Z,16.18
2018-10-04T19:37:17.052Z,16.09
2018-10-04T19:39:48.679Z,16.02
2018-10-04T19:42:19.508Z,16.04
2018-10-04T19:44:52.027Z,15.97
2018-10-04T19:47:25.922Z,15.98
2018-10-04T19:50:01.670Z,15.99
2018-10-04T19:52:35.927Z,15.99
2018-10-04T19:55:12.319Z,15.95
2018-10-04T19:57:43.440Z,15.94
2018-10-04T20:00:16.380Z,15.95
2018-10-04T20:02:47.554Z,15.95
2018-10-04T20:05:20.271Z,15.96
2018-10-04T20:07:52.948Z,15.98
2018-10-04T20:10:24.343Z,15.95
2018-10-04T20:12:55.691Z,15.87
2018-10-04T20:15:30.685Z,15.87
2018-10-04T20:20:52.845Z,15.88
2018-10-04T20:23:23.349Z,15.91
2018-10-04T20:25:53.033Z,15.88
2018-10-04T20:28:24.509Z,15.85
2018-10-04T20:31:10.292Z,15.84
2018-10-04T20:33:43.675Z,15.80
2018-10-04T20:36:14.920Z,15.74
2018-10-04T20:38:46.467Z,15.73
2018-10-04T20:41:18.585Z,15.73
2018-10-04T20:43:48.761Z,15.72
2018-10-04T20:46:23.531Z,15.73
2018-10-04T20:49:00.283Z,15.73
2018-10-04T20:51:38.011Z,15.73
2018-10-04T20:54:08.613Z,15.70
2018-10-04T20:56:41.410Z,15.64
2018-10-04T20:59:12.409Z,15.62
2018-10-04T21:01:47.645Z,15.58
2018-10-04T21:04:22.944Z,15.51
2018-10-04T21:06:55.317Z,15.51
2018-10-04T21:09:26.823Z,15.51
2018-10-04T21:11:57.222Z,15.52
2018-10-04T21:14:30.693Z,15.51
2018-10-04T21:17:05.845Z,15.51
2018-10-04T21:19:36.501Z,15.49
2018-10-04T21:22:07.221Z,15.48
2018-10-04T21:24:38.073Z,15.48
2018-10-04T21:27:13.652Z,15.49
2018-10-04T21:29:49.183Z,15.45
2018-10-04T21:32:30.462Z,15.45
2018-10-04T21:35:11.123Z,15.46
2018-10-04T21:37:40.955Z,15.35
2018-10-04T21:40:11.123Z,15.22
2018-10-04T21:42:40.583Z,15.11
2018-10-04T21:45:21.189Z,15.07
2018-10-04T21:47:52.958Z,15.03
2018-10-04T21:50:26.436Z,15.00
2018-10-04T21:52:57.437Z,15.03
2018-10-04T21:55:31.567Z,14.94
2018-10-04T21:58:03.176Z,14.88
2018-10-04T22:03:02.876Z,14.91
2018-10-04T22:05:43.153Z,14.87
2018-10-04T22:08:12.908Z,14.88
2018-10-04T22:10:43.386Z,14.89
2018-10-04T22:13:13.929Z,14.89
2018-10-04T22:15:45.595Z,14.89
2018-10-04T22:18:17.274Z,14.91
2018-10-04T22:20:48.637Z,14.88
2018-10-04T22:23:20.986Z,14.83
2018-10-04T22:25:50.439Z,14.81
2018-10-04T22:28:20.130Z,14.84
2018-10-04T22:30:51.517Z,14.79
2018-10-04T22:33:21.084Z,14.79
2018-10-04T22:35:51.767Z,14.76
2018-10-04T22:38:21.544Z,14.67
2018-10-04T22:40:51.384Z,14.64
2018-10-04T22:43:21.103Z,14.57
2018-10-04T22:45:53.381Z,14.53
2018-10-04T22:48:22.899Z,14.51
2018-10-04T22:50:52.668Z,14.45
2018-10-04T22:53:22.372Z,14.41
2018-10-04T22:55:55.002Z,14.33
2018-10-04T22:58:24.769Z,14.31
2018-10-04T23:00:58.809Z,14.22
2018-10-04T23:03:28.476Z,14.15
2018-10-04T23:05:57.844Z,14.18
2018-10-04T23:08:27.265Z,14.08
2018-10-04T23:10:58.292Z,14.13
2018-10-04T23:13:28.230Z,14.16
2018-10-04T23:15:58.136Z,14.17
2018-10-04T23:18:27.633Z,14.16
2018-10-04T23:20:58.238Z,14.20
2018-10-04T23:23:28.028Z,14.19
2018-10-04T23:25:57.824Z,14.08
2018-10-04T23:28:27.499Z,14.02
2018-10-04T23:30:57.226Z,13.96
2018-10-04T23:33:26.720Z,14.03
2018-10-04T23:35:56.616Z,13.93
2018-10-04T23:38:27.805Z,13.93
2018-10-04T23:40:57.865Z,13.96
2018-10-04T23:43:28.569Z,13.97
2018-10-04T23:46:00.297Z,13.99
2018-10-04T23:48:29.737Z,14.00
2018-10-04T23:50:59.940Z,14.00
2018-10-04T23:53:29.800Z,13.98
2018-10-04T23:56:04.588Z,13.86
2018-10-04T23:58:34.337Z,13.47
